Time;durP1;ratioP1;P1;durP2;ratioP2;P2;SDS_P1;SDS_P2;PMS_P1;PMS_P2;Temp;Humidity;BMP_temperature;BMP_pressure;BME280_temperature;BME280_humidity;BME280_pressure;Samples;Min_cycle;Max_cycle;Signal;HPM_P1;HPM_P2
2022/07/31 00:02:19;;;;;;;10.48;5.90;;;;;;;18.22;71.73;101627.25;5040431;28;20034;-66
2022/07/31 00:04:44;;;;;;;8.60;5.85;;;;;;;18.21;72.20;101633.78;5027434;28;20033;-66
2022/07/31 00:07:10;;;;;;;9.05;5.80;;;;;;;18.23;72.78;101640.03;5035143;28;20047;-66
2022/07/31 00:09:36;;;;;;;7.20;5.35;;;;;;;18.25;72.61;101634.38;5040049;28;20653;-66
2022/07/31 00:12:01;;;;;;;11.90;5.93;;;;;;;18.25;72.13;101628.84;5034408;28;20045;-66
2022/07/31 00:14:28;;;;;;;6.18;5.47;;;;;;;18.27;72.38;101629.56;5043959;28;20103;-66
2022/07/31 00:16:53;;;;;;;7.85;6.45;;;;;;;18.32;71.22;101632.75;5042396;28;20108;-68
2022/07/31 00:19:20;;;;;;;10.50;5.43;;;;;;;18.34;72.21;101628.00;5024965;28;20365;-67
2022/07/31 00:21:45;;;;;;;6.68;5.22;;;;;;;18.35;72.26;101627.84;5026615;28;20040;-66
2022/07/31 00:24:11;;;;;;;8.25;5.75;;;;;;;18.31;72.56;101629.16;5045986;28;20040;-65
2022/07/31 00:26:36;;;;;;;8.80;5.60;;;;;;;18.32;72.48;101619.84;5043866;28;20033;-67
2022/07/31 00:29:02;;;;;;;7.38;5.43;;;;;;;18.36;71.62;101624.06;5043414;28;20035;-67
2022/07/31 00:31:27;;;;;;;7.07;5.20;;;;;;;18.39;72.32;101622.94;5032228;28;20086;-67
2022/07/31 00:33:53;;;;;;;9.05;5.75;;;;;;;18.41;72.13;101628.28;5032008;28;20033;-66
2022/07/31 00:36:18;;;;;;;9.25;5.72;;;;;;;18.41;72.18;101625.53;5040028;28;20033;-66
2022/07/31 00:38:43;;;;;;;7.32;5.10;;;;;;;18.39;72.58;101631.19;5045495;28;20545;-67
2022/07/31 00:41:09;;;;;;;7.50;4.90;;;;;;;18.41;71.78;101634.66;5031913;28;20041;-67
2022/07/31 00:43:34;;;;;;;6.20;5.32;;;;;;;18.40;72.63;101626.56;5058833;28;20033;-67
2022/07/31 00:46:00;;;;;;;5.88;5.38;;;;;;;18.40;72.23;101621.91;5038729;28;20060;-69
2022/07/31 00:48:26;;;;;;;9.73;5.15;;;;;;;18.40;72.02;101621.91;5029500;28;20116;-67
2022/07/31 00:50:51;;;;;;;9.50;5.65;;;;;;;18.40;72.65;101616.41;5039920;28;20033;-66
2022/07/31 00:53:17;;;;;;;8.57;4.90;;;;;;;18.40;72.29;101618.28;5044498;28;20068;-70
2022/07/31 00:55:42;;;;;;;8.25;6.10;;;;;;;18.38;71.44;101617.56;5040172;28;20124;-67
2022/07/31 00:58:08;;;;;;;6.10;5.50;;;;;;;18.39;71.46;101611.03;5025976;28;20045;-66
2022/07/31 01:00:34;;;;;;;9.02;5.78;;;;;;;18.41;71.54;101606.25;5025893;28;20037;-67
2022/07/31 01:02:59;;;;;;;9.43;5.05;;;;;;;18.42;71.77;101600.63;5039521;28;20171;-65
2022/07/31 01:05:24;;;;;;;5.90;5.15;;;;;;;18.40;72.02;101610.88;5040948;28;20095;-67
2022/07/31 01:07:50;;;;;;;8.10;4.82;;;;;;;18.36;72.22;101606.69;5040077;28;20049;-66
2022/07/31 01:10:26;;;;;;;10.30;5.00;;;;;;;18.33;72.45;101601.47;5043853;28;20057;-65
2022/07/31 01:12:55;;;;;;;8.40;5.03;;;;;;;18.27;72.22;101613.91;5018836;28;20037;-66
2022/07/31 01:15:23;;;;;;;5.03;4.53;;;;;;;18.23;72.53;101609.72;5046618;28;20076;-67
2022/07/31 01:17:51;;;;;;;5.70;4.63;;;;;;;18.19;72.68;101615.66;5033830;28;20091;-67
2022/07/31 01:20:16;;;;;;;7.95;4.95;;;;;;;18.17;73.00;101612.16;5039846;28;20061;-66
2022/07/31 01:22:45;;;;;;;7.10;5.22;;;;;;;18.12;72.83;101623.59;5046507;28;20116;-67
2022/07/31 01:25:23;;;;;;;7.65;5.15;;;;;;;18.10;72.49;101606.34;5045368;28;20036;-66
2022/07/31 01:28:31;;;;;;;7.03;5.13;;;;;;;18.09;72.89;101613.75;5046383;28;20194;-68
2022/07/31 01:31:05;;;;;;;7.10;4.78;;;;;;;18.03;72.85;101602.41;5047182;28;20087;-67
2022/07/31 01:33:41;;;;;;;8.77;5.03;;;;;;;17.99;72.97;101604.56;5043101;28;20043;-69
2022/07/31 01:36:12;;;;;;;5.78;5.28;;;;;;;17.97;73.46;101611.25;5045084;28;20472;-67
2022/07/31 01:38:44;;;;;;;8.65;4.38;;;;;;;17.93;73.60;101609.78;5042566;28;20046;-67
2022/07/31 01:41:13;;;;;;;5.38;4.47;;;;;;;17.91;73.64;101609.94;5046774;28;20506;-66
2022/07/31 01:43:41;;;;;;;9.95;5.30;;;;;;;17.88;74.14;101603.81;5046792;28;20040;-67
2022/07/31 01:46:11;;;;;;;7.93;5.20;;;;;;;17.87;74.09;101607.59;5046207;28;20056;-67
2022/07/31 01:48:37;;;;;;;6.72;5.35;;;;;;;17.87;73.69;101607.59;5043979;28;20119;-68
2022/07/31 01:51:05;;;;;;;6.25;5.00;;;;;;;17.83;74.16;101605.13;5028558;28;20056;-66
2022/07/31 01:53:31;;;;;;;11.77;5.70;;;;;;;17.79;74.10;101602.78;5046037;28;20044;-66
2022/07/31 01:55:57;;;;;;;7.25;4.90;;;;;;;17.77;73.73;101604.81;5029701;28;20034;-66
2022/07/31 01:58:25;;;;;;;9.82;4.85;;;;;;;17.73;74.26;101597.81;5041063;28;20028;-67
2022/07/31 02:00:57;;;;;;;8.37;5.40;;;;;;;17.72;74.29;101605.19;5032643;28;20059;-67
2022/07/31 02:03:24;;;;;;;6.22;5.18;;;;;;;17.66;74.22;101602.13;5042292;28;20033;-67
2022/07/31 02:05:51;;;;;;;7.93;4.95;;;;;;;17.59;74.91;101605.44;5043453;28;20033;-69
2022/07/31 02:08:18;;;;;;;10.13;5.43;;;;;;;17.57;74.26;101610.19;5063177;28;20094;-65
2022/07/31 02:10:46;;;;;;;9.25;6.22;;;;;;;17.53;74.50;101602.34;5045850;28;20021;-66
2022/07/31 02:13:14;;;;;;;7.18;5.60;;;;;;;17.51;74.72;101604.38;5029720;28;20021;-68
2022/07/31 02:15:41;;;;;;;10.18;5.40;;;;;;;17.43;75.28;101599.53;5034069;28;20037;-67
2022/07/31 02:18:09;;;;;;;8.35;5.30;;;;;;;17.41;75.03;101593.31;5057635;28;20087;-66
2022/07/31 02:20:37;;;;;;;8.20;5.30;;;;;;;17.40;74.97;101601.72;5029591;28;20176;-66
2022/07/31 02:23:03;;;;;;;9.73;5.97;;;;;;;17.39;74.93;101597.19;5056826;28;20456;-66
2022/07/31 02:25:29;;;;;;;6.40;5.43;;;;;;;17.39;74.74;101594.44;5046877;28;20108;-67
2022/07/31 02:27:56;;;;;;;6.15;5.18;;;;;;;17.35;75.36;101604.88;5045865;28;20037;-65
2022/07/31 02:30:26;;;;;;;10.35;5.80;;;;;;;17.28;75.41;101596.28;5042138;28;20082;-68
2022/07/31 02:32:52;;;;;;;8.18;5.63;;;;;;;17.29;75.41;101605.41;5042318;28;20033;-66
2022/07/31 02:35:18;;;;;;;6.60;5.50;;;;;;;17.26;75.29;101606.56;5038970;28;20033;-67
2022/07/31 02:37:46;;;;;;;11.80;5.68;;;;;;;17.24;74.91;101604.94;5045187;28;20079;-67
2022/07/31 02:40:14;;;;;;;11.45;5.57;;;;;;;17.19;75.41;101608.09;5042261;28;20053;-66
2022/07/31 02:42:40;;;;;;;9.18;5.97;;;;;;;17.13;75.41;101599.53;5036496;28;20552;-67
2022/07/31 02:45:09;;;;;;;8.60;5.63;;;;;;;17.08;75.60;101599.94;5044981;28;20036;-68
2022/07/31 02:47:36;;;;;;;7.90;5.65;;;;;;;17.07;75.22;101596.31;5039718;28;20052;-67
2022/07/31 02:50:04;;;;;;;7.88;6.13;;;;;;;17.05;75.78;101592.81;5026610;28;20124;-67
2022/07/31 02:52:30;;;;;;;9.40;5.88;;;;;;;17.05;75.26;101595.56;5029683;28;20033;-70
2022/07/31 02:54:57;;;;;;;10.10;5.72;;;;;;;17.02;75.86;101593.09;5035070;28;20041;-67
2022/07/31 02:57:24;;;;;;;10.82;5.72;;;;;;;16.99;75.82;101587.88;5027941;28;20033;-68
2022/07/31 02:59:50;;;;;;;6.63;5.80;;;;;;;16.99;75.70;101582.38;5045060;28;20039;-66
2022/07/31 03:02:16;;;;;;;8.60;6.05;;;;;;;16.97;76.13;101573.41;5042251;28;20040;-67
2022/07/31 03:04:43;;;;;;;8.65;6.00;;;;;;;16.96;76.46;101577.13;5032173;28;20687;-66
2022/07/31 03:07:09;;;;;;;10.30;5.90;;;;;;;16.96;76.72;101579.88;5042685;28;20048;-69
2022/07/31 03:09:35;;;;;;;9.13;5.63;;;;;;;16.93;76.63;101580.16;5044076;28;20021;-66
2022/07/31 03:12:24;;;;;;;7.90;5.78;;;;;;;16.91;76.85;101578.53;5045629;28;20539;-68
2022/07/31 03:14:51;;;;;;;14.32;6.22;;;;;;;16.90;77.24;101576.81;5024711;28;20037;-66
2022/07/31 03:17:18;;;;;;;10.75;5.78;;;;;;;16.91;77.01;101571.16;5038625;28;20063;-67
2022/07/31 03:19:44;;;;;;;9.85;5.78;;;;;;;16.92;77.11;101572.03;5038125;28;20025;-66
2022/07/31 03:22:10;;;;;;;6.95;5.43;;;;;;;16.93;77.09;101568.31;5025266;28;20033;-67
2022/07/31 03:24:36;;;;;;;8.25;5.80;;;;;;;16.91;76.88;101559.31;5050030;28;20032;-66
2022/07/31 03:27:01;;;;;;;9.18;5.40;;;;;;;16.96;77.05;101579.88;5044226;28;20032;-67
2022/07/31 03:29:36;;;;;;;9.63;6.28;;;;;;;16.92;77.25;101575.66;5027088;28;20040;-67
2022/07/31 03:32:02;;;;;;;8.70;6.13;;;;;;;16.92;77.36;101575.66;5041555;28;20040;-67
2022/07/31 03:34:27;;;;;;;9.27;6.10;;;;;;;16.89;77.97;101570.44;5035876;28;20037;-66
2022/07/31 03:36:52;;;;;;;10.50;6.88;;;;;;;16.88;78.18;101567.81;5029809;28;20079;-68
2022/07/31 03:39:18;;;;;;;9.50;6.10;;;;;;;16.88;77.51;101576.06;5044823;28;20053;-68
2022/07/31 03:41:45;;;;;;;12.13;7.18;;;;;;;16.83;77.74;101562.72;5044975;28;20040;-68
2022/07/31 03:44:11;;;;;;;8.73;6.18;;;;;;;16.86;77.38;101562.44;5044487;28;20037;-65
2022/07/31 03:46:37;;;;;;;10.20;6.70;;;;;;;16.89;77.73;101569.56;5023206;28;20040;-68
2022/07/31 03:49:04;;;;;;;7.53;6.20;;;;;;;16.90;77.47;101569.44;5039455;28;20118;-68
2022/07/31 03:51:30;;;;;;;12.48;7.20;;;;;;;16.89;78.04;101558.59;5041471;28;20038;-67
2022/07/31 03:53:56;;;;;;;15.60;7.05;;;;;;;16.89;77.45;101570.44;5025702;28;20116;-66
2022/07/31 03:56:44;;;;;;;13.82;7.18;;;;;;;16.90;77.85;101566.69;5033427;28;20045;-68
2022/07/31 03:59:10;;;;;;;8.68;7.53;;;;;;;16.94;77.58;101564.53;5035816;28;20053;-67
2022/07/31 04:01:36;;;;;;;11.57;8.70;;;;;;;16.97;78.14;101559.66;5025660;28;20025;-68
2022/07/31 04:04:02;;;;;;;11.98;7.55;;;;;;;16.96;77.32;101563.38;5039514;28;20053;-67
2022/07/31 04:06:32;;;;;;;10.77;8.57;;;;;;;16.96;77.92;101566.13;5035864;28;20112;-66
2022/07/31 04:09:00;;;;;;;11.85;9.25;;;;;;;17.00;78.07;101572.25;5044757;28;20446;-67
2022/07/31 04:11:26;;;;;;;15.70;9.32;;;;;;;17.00;78.30;101577.75;5041257;28;20117;-67
2022/07/31 04:13:52;;;;;;;15.93;10.23;;;;;;;17.02;77.36;101583.97;5029835;28;20437;-68
2022/07/31 04:16:18;;;;;;;12.52;10.32;;;;;;;16.95;77.19;101566.28;5038736;28;20120;-69
2022/07/31 04:18:43;;;;;;;12.57;10.35;;;;;;;17.03;77.45;101578.34;5028090;28;20112;-67
2022/07/31 04:21:09;;;;;;;19.13;13.32;;;;;;;17.02;77.12;101576.63;5039858;28;20029;-70
2022/07/31 04:23:34;;;;;;;15.15;11.70;;;;;;;17.03;77.36;101580.22;5043835;28;20079;-65
2022/07/31 04:26:15;;;;;;;16.75;12.40;;;;;;;17.04;76.89;101581.97;5037948;28;20041;-69
2022/07/31 04:28:49;;;;;;;11.32;10.02;;;;;;;17.06;77.89;101586.31;5045319;28;20392;-66
2022/07/31 04:31:14;;;;;;;20.33;10.95;;;;;;;17.09;77.45;101587.94;5042820;28;20055;-67
2022/07/31 04:33:42;;;;;;;15.93;12.38;;;;;;;17.07;77.96;101582.56;5032501;28;20029;-69
2022/07/31 04:36:08;;;;;;;17.30;12.63;;;;;;;17.07;77.38;101587.19;5042547;28;20029;-66
2022/07/31 04:38:34;;;;;;;18.48;12.20;;;;;;;17.12;77.21;101584.91;5031371;28;20046;-68
2022/07/31 04:40:59;;;;;;;15.52;11.55;;;;;;;17.15;76.76;101586.50;5043472;28;20041;-65
2022/07/31 04:43:26;;;;;;;13.77;10.75;;;;;;;17.17;77.83;101579.00;5048878;28;20411;-68
2022/07/31 04:45:51;;;;;;;16.17;10.90;;;;;;;17.18;78.01;101581.63;5046049;28;20020;-67
2022/07/31 04:48:16;;;;;;;16.50;10.82;;;;;;;17.20;77.20;101585.09;5042689;28;20029;-68
2022/07/31 04:50:42;;;;;;;16.25;11.60;;;;;;;17.21;77.32;101580.50;5031956;28;20623;-67
2022/07/31 04:53:07;;;;;;;14.57;10.77;;;;;;;17.21;77.81;101575.84;5041714;28;20112;-65
2022/07/31 04:55:37;;;;;;;14.35;11.02;;;;;;;17.25;78.23;101568.19;5045085;28;20087;-65
2022/07/31 04:58:02;;;;;;;17.02;10.73;;;;;;;17.34;76.65;101576.47;5042694;28;20670;-67
2022/07/31 05:00:28;;;;;;;13.82;10.38;;;;;;;17.41;77.30;101578.69;5044697;28;20104;-65
2022/07/31 05:02:53;;;;;;;14.55;10.63;;;;;;;17.42;76.44;101585.94;5042726;28;20086;-65
2022/07/31 05:05:20;;;;;;;20.95;10.98;;;;;;;17.40;76.96;101575.09;5057166;28;20128;-65
2022/07/31 05:07:45;;;;;;;16.50;11.43;;;;;;;17.39;77.10;101573.31;5046928;28;20039;-64
2022/07/31 05:12:59;;;;;;;15.13;9.90;;;;;;;17.41;76.85;101565.81;5042816;28;20044;-69
2022/07/31 05:15:25;;;;;;;15.30;10.43;;;;;;;17.41;77.93;101576.81;5045218;28;20332;-66
2022/07/31 05:17:51;;;;;;;13.63;9.10;;;;;;;17.42;77.46;101570.28;5061908;28;20044;-68
2022/07/31 05:20:37;;;;;;;11.88;8.43;;;;;;;17.43;78.33;101565.66;5028473;28;20075;-65
2022/07/31 05:23:16;;;;;;;14.52;7.43;;;;;;;17.48;76.63;101563.38;5044095;28;20021;-67
2022/07/31 05:25:53;;;;;;;15.13;8.85;;;;;;;17.52;77.42;101565.69;5023337;28;20504;-65
2022/07/31 05:28:19;;;;;;;14.00;8.50;;;;;;;17.56;78.18;101566.31;5045897;28;20036;-65
2022/07/31 05:30:44;;;;;;;12.55;8.95;;;;;;;17.62;77.45;101553.84;5043163;28;20108;-65
2022/07/31 05:33:10;;;;;;;17.27;9.02;;;;;;;17.60;77.62;101563.13;5037909;28;20033;-66
2022/07/31 05:35:36;;;;;;;11.38;7.72;;;;;;;17.61;77.08;101558.50;5036504;28;20120;-65
2022/07/31 05:38:01;;;;;;;15.50;7.80;;;;;;;17.68;76.00;101554.19;5042417;28;20111;-66
2022/07/31 05:40:47;;;;;;;14.43;8.20;;;;;;;17.65;78.93;101550.84;5040812;28;20454;-65
2022/07/31 05:43:37;;;;;;;10.15;7.53;;;;;;;17.67;79.65;101555.19;5036662;28;20033;-65
2022/07/31 05:46:13;;;;;;;9.57;7.63;;;;;;;17.66;78.40;101558.09;5039314;28;20025;-65
2022/07/31 05:48:40;;;;;;;9.00;7.03;;;;;;;17.71;78.10;101559.41;5039652;28;20044;-66
2022/07/31 05:51:10;;;;;;;10.25;7.18;;;;;;;17.68;79.19;101564.34;5039415;28;20029;-64
2022/07/31 05:53:37;;;;;;;8.73;6.70;;;;;;;17.71;79.16;101569.53;5043278;28;20048;-65
2022/07/31 05:56:21;;;;;;;8.70;6.32;;;;;;;17.76;79.05;101559.00;5044009;28;20451;-64
2022/07/31 05:58:48;;;;;;;8.63;6.70;;;;;;;17.79;79.11;101554.09;5043369;28;20024;-66
2022/07/31 06:01:15;;;;;;;10.20;6.50;;;;;;;17.80;79.43;101555.84;5040368;28;20036;-66
2022/07/31 06:03:40;;;;;;;11.63;7.63;;;;;;;17.78;80.02;101559.75;5052517;28;20030;-68
2022/07/31 06:06:15;;;;;;;11.52;7.28;;;;;;;17.81;79.25;101567.72;5038549;28;20533;-66
2022/07/31 06:08:40;;;;;;;10.65;6.43;;;;;;;17.85;79.47;101558.16;5030635;28;20037;-68
2022/07/31 06:11:06;;;;;;;9.23;6.10;;;;;;;17.90;78.97;101555.00;5037879;28;20040;-65
2022/07/31 06:13:31;;;;;;;11.23;6.63;;;;;;;17.94;79.83;101571.09;5040618;28;20025;-67
2022/07/31 06:16:11;;;;;;;8.68;5.97;;;;;;;17.98;79.10;101566.19;5034518;28;20032;-67
2022/07/31 06:18:36;;;;;;;8.57;4.97;;;;;;;18.04;78.60;101563.72;5040693;28;20518;-65
2022/07/31 06:21:02;;;;;;;8.15;5.50;;;;;;;18.11;79.99;101553.00;5038033;28;20107;-66
2022/07/31 06:23:27;;;;;;;8.15;5.57;;;;;;;18.18;79.48;101554.16;5044114;28;20048;-65
2022/07/31 06:25:59;;;;;;;10.25;5.53;;;;;;;18.22;78.46;101552.88;5043607;28;20029;-65
2022/07/31 06:28:24;;;;;;;10.10;5.60;;;;;;;18.27;79.57;101556.06;5044974;28;20095;-65
2022/07/31 06:30:50;;;;;;;9.63;5.95;;;;;;;18.32;79.22;101559.25;5033290;28;20514;-64
2022/07/31 06:33:15;;;;;;;9.05;5.47;;;;;;;18.36;79.71;101549.69;5037596;28;20055;-65
2022/07/31 06:35:40;;;;;;;10.40;5.80;;;;;;;18.41;78.44;101551.13;5031230;28;20033;-65
2022/07/31 06:38:44;;;;;;;6.88;4.95;;;;;;;18.48;78.80;101552.31;5031217;28;20048;-66
2022/07/31 06:41:48;;;;;;;7.30;4.82;;;;;;;18.56;78.70;101546.97;5038479;28;20044;-68
2022/07/31 06:44:31;;;;;;;10.40;5.45;;;;;;;18.72;77.32;101541.75;5041889;28;20064;-65
2022/07/31 06:47:23;;;;;;;14.05;5.72;;;;;;;18.82;77.67;101548.09;5040930;28;20052;-65
2022/07/31 06:50:01;;;;;;;9.43;5.25;;;;;;;18.94;78.20;101553.47;5041549;28;20037;-69
2022/07/31 06:52:31;;;;;;;11.13;5.53;;;;;;;18.99;78.23;101549.25;5039289;28;20108;-68
2022/07/31 06:54:57;;;;;;;11.35;5.78;;;;;;;19.04;77.98;101554.31;5044438;28;20123;-68
2022/07/31 06:57:22;;;;;;;9.68;5.90;;;;;;;19.06;76.79;101558.63;5038791;28;20052;-67
2022/07/31 06:59:48;;;;;;;11.80;5.47;;;;;;;19.18;77.06;101550.22;5044190;28;20459;-67
2022/07/31 07:02:13;;;;;;;9.93;6.03;;;;;;;19.22;76.17;101541.47;5040509;28;20036;-67
2022/07/31 07:04:39;;;;;;;16.50;6.47;;;;;;;19.29;76.78;101547.25;5035106;28;20025;-66
2022/07/31 07:07:04;;;;;;;10.43;5.93;;;;;;;19.37;76.50;101547.38;5040818;28;20033;-67
2022/07/31 07:09:30;;;;;;;12.52;6.45;;;;;;;19.45;76.07;101547.50;5042531;28;20407;-71
2022/07/31 07:11:56;;;;;;;11.32;6.72;;;;;;;19.50;75.18;101553.44;5037562;28;20060;-67
2022/07/31 07:14:22;;;;;;;9.65;6.70;;;;;;;19.52;75.47;101554.13;5038972;28;20663;-67
2022/07/31 07:16:47;;;;;;;9.40;6.32;;;;;;;19.64;74.90;101563.13;5018139;28;20044;-67
2022/07/31 07:19:13;;;;;;;12.45;6.93;;;;;;;19.68;74.86;101553.53;5034798;28;20047;-70
2022/07/31 07:21:39;;;;;;;9.13;6.90;;;;;;;19.83;74.85;101551.13;5038564;28;20250;-67
2022/07/31 07:24:04;;;;;;;9.95;6.93;;;;;;;19.97;74.74;101552.50;5039248;28;20082;-69
2022/07/31 07:26:37;;;;;;;11.18;6.55;;;;;;;20.17;74.23;101551.31;5042217;28;20480;-66
2022/07/31 07:29:03;;;;;;;10.95;6.80;;;;;;;20.36;74.32;101550.31;5043146;28;20081;-67
2022/07/31 07:31:29;;;;;;;10.60;6.97;;;;;;;20.51;74.01;101543.22;5038594;28;20415;-66
2022/07/31 07:33:56;;;;;;;12.25;7.13;;;;;;;20.74;72.81;101540.81;5041552;28;20468;-68
2022/07/31 07:36:23;;;;;;;14.05;7.05;;;;;;;21.01;71.22;101547.25;5038664;28;20025;-67
2022/07/31 07:38:48;;;;;;;10.73;6.88;;;;;;;21.08;72.20;101535.38;5035851;28;20520;-68
2022/07/31 07:41:14;;;;;;;13.10;7.65;;;;;;;21.12;70.72;101538.66;5036562;28;20131;-67
2022/07/31 07:43:41;;;;;;;15.68;8.35;;;;;;;21.18;71.04;101537.19;5035917;28;20037;-67
2022/07/31 07:46:06;;;;;;;13.93;8.75;;;;;;;21.25;70.84;101529.94;5029227;28;20033;-66
2022/07/31 07:48:32;;;;;;;13.70;8.60;;;;;;;21.27;70.01;101536.19;5030123;28;20025;-66
2022/07/31 07:51:11;;;;;;;15.52;8.32;;;;;;;21.32;70.34;101542.13;5038367;28;20032;-68
2022/07/31 07:53:52;;;;;;;11.48;8.63;;;;;;;21.41;69.80;101538.38;5037310;28;20084;-65
2022/07/31 07:56:36;;;;;;;13.15;7.95;;;;;;;21.47;69.62;101529.41;5041468;28;20677;-66
2022/07/31 07:59:20;;;;;;;15.25;8.77;;;;;;;21.48;69.50;101535.81;5041823;28;20052;-69
2022/07/31 08:01:46;;;;;;;12.77;9.45;;;;;;;21.41;70.20;101537.53;5039105;28;20381;-68
2022/07/31 08:04:19;;;;;;;16.63;8.98;;;;;;;21.45;70.65;101542.56;5048459;28;20024;-66
2022/07/31 08:06:45;;;;;;;13.10;8.20;;;;;;;21.58;70.37;101544.84;5041023;28;20033;-68
2022/07/31 08:09:10;;;;;;;15.73;9.10;;;;;;;21.65;70.19;101543.16;5031703;28;20045;-67
2022/07/31 08:11:54;;;;;;;13.55;8.90;;;;;;;21.76;69.28;101542.00;5053149;28;20115;-68
2022/07/31 08:14:39;;;;;;;15.88;9.55;;;;;;;21.79;68.96;101527.81;5043134;28;20028;-66
2022/07/31 08:17:23;;;;;;;12.98;9.02;;;;;;;21.78;69.45;101532.50;5043462;28;20051;-66
2022/07/31 08:19:48;;;;;;;10.07;8.25;;;;;;;21.89;68.80;101532.16;5042771;28;20127;-67
2022/07/31 08:22:14;;;;;;;15.50;9.27;;;;;;;21.95;69.12;101522.31;5043047;28;20041;-65
2022/07/31 08:24:40;;;;;;;14.05;9.68;;;;;;;22.00;69.02;101528.22;5045405;28;20029;-66
2022/07/31 08:27:24;;;;;;;12.60;9.20;;;;;;;21.99;68.82;101520.06;5035722;28;20095;-67
2022/07/31 08:29:55;;;;;;;11.65;8.35;;;;;;;22.07;68.61;101520.97;5041433;28;20491;-66
2022/07/31 08:32:27;;;;;;;12.23;9.07;;;;;;;22.04;68.93;101521.28;5024828;28;20129;-67
2022/07/31 08:34:55;;;;;;;12.77;8.75;;;;;;;22.02;68.89;101526.16;5034419;28;20037;-66
2022/07/31 08:37:21;;;;;;;10.90;8.00;;;;;;;21.91;68.17;101530.09;5044206;28;20035;-66
2022/07/31 08:39:49;;;;;;;15.55;8.80;;;;;;;21.84;68.83;101522.63;5040827;28;20029;-67
2022/07/31 08:42:16;;;;;;;13.18;8.88;;;;;;;21.89;69.72;101529.41;5044341;28;20136;-68
2022/07/31 08:44:43;;;;;;;11.75;9.02;;;;;;;21.88;68.82;101530.44;5048094;28;20071;-66
2022/07/31 08:47:14;;;;;;;10.65;8.93;;;;;;;21.96;68.93;101524.03;5047121;28;20048;-66
2022/07/31 08:49:45;;;;;;;13.93;8.70;;;;;;;22.06;69.76;101538.63;5031437;28;20576;-67
2022/07/31 08:52:19;;;;;;;10.43;8.68;;;;;;;22.15;69.25;101529.34;5048245;28;20519;-67
2022/07/31 08:55:00;;;;;;;13.45;8.57;;;;;;;22.30;69.68;101534.22;5042718;28;20551;-66
2022/07/31 08:57:28;;;;;;;13.65;8.90;;;;;;;22.22;68.69;101531.41;5045100;28;20044;-67
2022/07/31 08:59:54;;;;;;;12.75;8.82;;;;;;;22.16;69.30;101527.44;5041581;28;20135;-67
2022/07/31 09:02:20;;;;;;;11.13;9.40;;;;;;;22.02;70.00;101528.94;5042854;28;20384;-68
2022/07/31 09:05:05;;;;;;;14.95;8.90;;;;;;;22.13;69.10;101534.16;5035734;28;20142;-67
2022/07/31 09:07:31;;;;;;;12.55;8.57;;;;;;;22.27;68.98;101534.53;5045062;28;20048;-66
2022/07/31 09:09:56;;;;;;;15.10;9.07;;;;;;;22.40;68.17;101526.59;5031128;28;20037;-66
2022/07/31 09:12:32;;;;;;;16.08;9.55;;;;;;;22.33;68.76;101520.00;5047739;28;20400;-67
2022/07/31 09:15:03;;;;;;;12.00;8.88;;;;;;;22.35;68.86;101518.78;5046288;28;20039;-67
2022/07/31 09:17:34;;;;;;;11.75;8.60;;;;;;;22.43;68.14;101515.16;5042607;28;20029;-67
2022/07/31 09:20:00;;;;;;;14.30;9.23;;;;;;;22.49;67.91;101508.94;5059978;28;20082;-68
2022/07/31 09:22:30;;;;;;;11.32;8.50;;;;;;;22.57;70.13;101510.81;5042200;28;20064;-71
2022/07/31 09:25:14;;;;;;;10.63;8.18;;;;;;;22.66;67.86;101509.78;5033691;28;20098;-67
2022/07/31 09:27:40;;;;;;;11.63;8.48;;;;;;;22.79;67.29;101518.44;5035107;28;21223;-66
2022/07/31 09:30:07;;;;;;;10.32;9.00;;;;;;;22.92;68.15;101521.59;5038936;28;20028;-68
2022/07/31 09:32:52;;;;;;;14.50;8.80;;;;;;;23.08;66.78;101519.81;5027657;28;20397;-68
2022/07/31 09:35:24;;;;;;;17.77;8.55;;;;;;;23.10;67.58;101510.28;5037134;28;20047;-68
2022/07/31 09:37:50;;;;;;;10.88;8.70;;;;;;;23.11;66.04;101520.34;5030729;28;20127;-68
2022/07/31 09:40:35;;;;;;;9.20;7.72;;;;;;;23.22;66.47;101518.22;5038336;28;20072;-67
2022/07/31 09:43:28;;;;;;;10.35;7.55;;;;;;;23.60;66.04;101511.84;5013483;28;20140;-68
2022/07/31 09:46:02;;;;;;;13.18;7.85;;;;;;;23.91;66.12;101516.59;5043102;28;20734;-66
2022/07/31 09:48:28;;;;;;;9.18;7.95;;;;;;;24.09;62.50;101505.19;5043304;28;20029;-66
2022/07/31 09:50:59;;;;;;;11.48;7.65;;;;;;;24.39;65.01;101506.25;5026938;28;20026;-67
2022/07/31 09:53:39;;;;;;;10.55;7.35;;;;;;;24.67;64.62;101501.81;5044483;28;20592;-66
2022/07/31 09:56:16;;;;;;;9.18;7.35;;;;;;;24.93;63.58;101506.97;5036120;28;20037;-67
2022/07/31 09:58:42;;;;;;;12.57;7.72;;;;;;;24.99;61.87;101507.25;5026978;28;20473;-67
2022/07/31 10:01:10;;;;;;;13.43;6.63;;;;;;;25.04;61.91;101501.97;5026614;28;20064;-65
2022/07/31 10:03:39;;;;;;;7.78;6.90;;;;;;;25.03;61.44;101505.81;5026342;28;20037;-67
2022/07/31 10:06:10;;;;;;;7.32;6.07;;;;;;;25.07;61.06;101509.97;5042870;28;20135;-65
2022/07/31 10:08:36;;;;;;;9.70;7.03;;;;;;;25.03;60.60;101500.25;5060339;28;20063;-66
2022/07/31 10:11:33;;;;;;;10.32;6.53;;;;;;;24.91;61.07;101513.78;5026767;28;20382;-64
2022/07/31 10:14:14;;;;;;;7.20;5.00;;;;;;;25.15;60.60;101507.13;5046067;28;20033;-64
2022/07/31 10:16:42;;;;;;;6.30;5.55;;;;;;;25.20;60.74;101507.41;5042255;28;20434;-64
2022/07/31 10:19:33;;;;;;;9.57;6.15;;;;;;;25.19;59.97;101502.91;5039822;28;20044;-65
2022/07/31 10:22:42;;;;;;;8.30;5.63;;;;;;;25.13;60.12;101510.13;4985026;28;20537;-66
2022/07/31 10:25:12;;;;;;;8.07;5.53;;;;;;;24.91;60.02;101497.94;5020289;28;20052;-65
2022/07/31 10:27:39;;;;;;;9.88;5.40;;;;;;;24.90;60.57;101503.69;5042386;28;20104;-67
2022/07/31 10:30:09;;;;;;;6.63;4.93;;;;;;;24.91;61.10;101503.50;5025804;28;20057;-64
2022/07/31 10:32:39;;;;;;;6.97;4.53;;;;;;;24.93;60.57;101500.53;5025546;28;20049;-64
2022/07/31 10:35:24;;;;;;;6.28;4.40;;;;;;;25.20;62.11;101496.28;5027153;28;20068;-65
2022/07/31 10:38:22;;;;;;;6.63;4.47;;;;;;;25.34;60.13;101483.41;5039101;28;20058;-65
2022/07/31 10:41:02;;;;;;;8.77;4.88;;;;;;;25.47;59.20;101488.31;5043762;28;20041;-64
2022/07/31 10:43:40;;;;;;;5.30;4.35;;;;;;;25.70;59.08;101480.69;5026767;28;20044;-68
2022/07/31 10:46:11;;;;;;;6.55;4.57;;;;;;;25.84;57.89;101481.75;5039360;28;20060;-66
2022/07/31 10:49:03;;;;;;;7.80;4.15;;;;;;;25.88;58.01;101483.94;5040665;28;20031;-68
2022/07/31 10:51:52;;;;;;;9.23;4.43;;;;;;;25.60;57.21;101483.78;5038959;28;20494;-65
2022/07/31 10:54:44;;;;;;;5.45;4.63;;;;;;;25.32;58.46;101489.19;5040530;28;20071;-63
2022/07/31 10:57:48;;;;;;;6.93;4.15;;;;;;;25.11;59.45;101477.94;4981386;28;20081;-65
2022/07/31 11:00:28;;;;;;;8.65;4.22;;;;;;;25.11;59.92;101469.56;4951602;28;20406;-66
2022/07/31 11:03:12;;;;;;;9.98;4.18;;;;;;;25.31;60.13;101473.50;5022413;28;20044;-64
2022/07/31 11:05:58;;;;;;;9.32;4.25;;;;;;;25.50;59.02;101476.75;5036742;28;20543;-64
2022/07/31 11:08:46;;;;;;;6.00;3.78;;;;;;;25.24;58.90;101469.78;5046076;28;20033;-64
2022/07/31 11:11:37;;;;;;;6.53;3.87;;;;;;;25.22;59.30;101471.88;5040522;28;20076;-68
2022/07/31 11:14:38;;;;;;;4.38;3.70;;;;;;;25.25;59.19;101470.63;5035076;28;20102;-67
2022/07/31 11:17:39;;;;;;;5.55;3.80;;;;;;;25.16;59.64;101456.78;5010979;28;20044;-68
2022/07/31 11:20:29;;;;;;;6.45;3.55;;;;;;;25.01;58.76;101463.41;5035269;28;20033;-66
2022/07/31 11:23:00;;;;;;;4.22;3.70;;;;;;;24.94;59.41;101461.34;5024394;28;20033;-68
2022/07/31 11:25:31;;;;;;;5.17;4.13;;;;;;;24.96;60.25;101458.41;5036178;28;20087;-68
2022/07/31 11:28:09;;;;;;;5.53;3.85;;;;;;;25.26;60.22;101459.28;5026204;28;20496;-67
2022/07/31 11:30:59;;;;;;;6.90;4.00;;;;;;;25.69;60.70;101449.16;5026350;28;20528;-66
2022/07/31 11:33:32;;;;;;;5.07;3.55;;;;;;;26.07;60.32;101451.78;5039348;28;20491;-66
2022/07/31 11:36:07;;;;;;;6.97;3.85;;;;;;;26.48;58.06;101450.25;5028908;28;20041;-67
2022/07/31 11:38:32;;;;;;;7.47;3.80;;;;;;;26.54;55.05;101449.47;5044133;28;20080;-66
2022/07/31 11:40:58;;;;;;;7.05;3.83;;;;;;;26.53;56.67;101440.19;5035303;28;20130;-67